Time;durP1;ratioP1;P1;durP2;ratioP2;P2;SDS_P1;SDS_P2;PMS_P1;PMS_P2;Temp;Humidity;BMP_temperature;BMP_pressure;BME280_temperature;BME280_humidity;BME280_pressure;Samples;Min_cycle;Max_cycle;Signal;HPM_P1;HPM_P2
2022/09/26 00:01:54;;;;;;;13.40;11.90;;;15.60;99.90;;;;;;6094532;23;20013;-77
2022/09/26 00:04:22;;;;;;;16.42;11.52;;;15.60;99.90;;;;;;6096081;23;20030;-77
2022/09/26 00:06:49;;;;;;;13.98;11.35;;;15.70;99.90;;;;;;6096038;23;20010;-77
2022/09/26 00:09:16;;;;;;;14.90;11.35;;;15.70;99.90;;;;;;6095977;23;20009;-77
2022/09/26 00:11:43;;;;;;;12.70;11.40;;;15.70;99.90;;;;;;6094253;23;20011;-77
2022/09/26 00:14:17;;;;;;;13.38;11.73;;;15.70;99.90;;;;;;6094362;23;20026;-77
2022/09/26 00:16:43;;;;;;;14.57;12.02;;;15.70;99.90;;;;;;6095732;23;20085;-77
2022/09/26 00:19:09;;;;;;;14.10;11.23;;;15.70;99.90;;;;;;6095705;23;20014;-77
2022/09/26 00:21:35;;;;;;;13.70;12.13;;;15.70;99.90;;;;;;6095707;23;20359;-76
2022/09/26 00:24:01;;;;;;;13.77;12.25;;;15.70;99.90;;;;;;6095735;23;20007;-77
2022/09/26 00:26:29;;;;;;;16.60;12.70;;;15.70;99.90;;;;;;6095722;23;20007;-77
2022/09/26 00:28:59;;;;;;;14.25;12.18;;;15.70;99.90;;;;;;6095704;23;20003;-77
2022/09/26 00:31:28;;;;;;;13.73;11.73;;;15.80;99.90;;;;;;6095793;23;20334;-77
2022/09/26 00:33:55;;;;;;;13.95;11.38;;;15.80;99.90;;;;;;6095669;23;20057;-77
2022/09/26 00:36:21;;;;;;;13.93;11.77;;;15.80;99.90;;;;;;6094200;23;20011;-77
2022/09/26 00:38:46;;;;;;;13.70;11.23;;;15.90;99.90;;;;;;6095676;23;20034;-77
2022/09/26 00:41:15;;;;;;;15.02;11.02;;;15.90;99.90;;;;;;6095211;23;20057;-77
2022/09/26 00:43:49;;;;;;;12.57;11.25;;;15.90;99.90;;;;;;6094033;23;20066;-77
2022/09/26 00:46:36;;;;;;;12.13;10.82;;;15.90;99.90;;;;;;6095156;23;20009;-77
2022/09/26 00:49:20;;;;;;;14.63;11.82;;;15.90;99.90;;;;;;6095323;23;20053;-77
2022/09/26 00:51:50;;;;;;;13.77;11.30;;;15.90;99.90;;;;;;6095399;23;20006;-77
2022/09/26 00:54:18;;;;;;;12.43;10.98;;;15.90;99.90;;;;;;6095437;23;20002;-77
2022/09/26 00:56:48;;;;;;;12.98;10.98;;;16.00;99.90;;;;;;6095498;23;20003;-77
2022/09/26 00:59:28;;;;;;;16.05;12.02;;;16.00;99.90;;;;;;6095184;23;20488;-77
2022/09/26 01:01:56;;;;;;;13.02;11.05;;;16.00;99.90;;;;;;6093664;23;20021;-77
2022/09/26 01:04:24;;;;;;;13.88;12.43;;;16.00;99.90;;;;;;6095390;23;20003;-77
2022/09/26 01:07:00;;;;;;;14.75;11.82;;;16.00;99.90;;;;;;6093717;23;20017;-77
2022/09/26 01:09:28;;;;;;;12.35;10.98;;;16.00;99.90;;;;;;6095463;23;20002;-77
2022/09/26 01:11:54;;;;;;;17.27;11.90;;;16.00;99.90;;;;;;6095276;23;20061;-77
2022/09/26 01:14:20;;;;;;;13.68;11.13;;;16.00;99.90;;;;;;6093769;23;20439;-77
2022/09/26 01:16:50;;;;;;;15.43;10.70;;;16.00;99.90;;;;;;6095318;23;20078;-77
2022/09/26 01:19:38;;;;;;;13.48;11.30;;;16.10;99.90;;;;;;6093728;23;20062;-77
2022/09/26 01:22:47;;;;;;;13.90;11.52;;;16.00;99.90;;;;;;6095023;23;20089;-77
2022/09/26 01:25:40;;;;;;;20.17;13.45;;;16.00;99.90;;;;;;6093563;23;20502;-77
2022/09/26 01:28:36;;;;;;;16.83;13.10;;;16.00;99.90;;;;;;6095299;23;20030;-77
2022/09/26 01:31:21;;;;;;;15.60;11.32;;;16.00;99.90;;;;;;6095230;23;20010;-77
2022/09/26 01:34:15;;;;;;;12.75;10.93;;;16.00;99.90;;;;;;6093680;23;20464;-77
2022/09/26 01:37:03;;;;;;;13.50;11.25;;;15.90;99.90;;;;;;6095064;23;20007;-77
2022/09/26 01:39:29;;;;;;;12.57;10.90;;;15.90;99.90;;;;;;6095272;23;20010;-77
2022/09/26 01:42:13;;;;;;;13.00;11.30;;;15.90;99.90;;;;;;6095031;23;20057;-77
2022/09/26 01:44:53;;;;;;;13.88;12.00;;;15.80;99.90;;;;;;6095222;23;20061;-76
2022/09/26 01:47:29;;;;;;;14.52;12.18;;;15.70;99.90;;;;;;6093465;23;20030;-77
2022/09/26 01:50:01;;;;;;;15.90;11.90;;;15.70;99.90;;;;;;6095120;23;19994;-77
2022/09/26 01:52:36;;;;;;;14.10;12.40;;;15.70;99.90;;;;;;6095153;23;20010;-77
2022/09/26 01:55:08;;;;;;;15.25;12.05;;;15.80;99.90;;;;;;6093403;23;20434;-77
2022/09/26 01:57:43;;;;;;;16.50;11.25;;;15.70;99.90;;;;;;6094912;23;20011;-77
2022/09/26 02:00:11;;;;;;;14.38;10.38;;;15.80;99.90;;;;;;6093203;23;20030;-77
2022/09/26 02:02:44;;;;;;;13.35;10.98;;;15.90;99.90;;;;;;6095067;23;20025;-77
2022/09/26 02:05:34;;;;;;;14.27;12.63;;;15.80;99.90;;;;;;6094963;23;20002;-76
2022/09/26 02:08:11;;;;;;;22.27;17.77;;;15.90;99.90;;;;;;6095075;23;20026;-77
2022/09/26 02:10:50;;;;;;;24.23;18.88;;;15.90;99.90;;;;;;6094804;23;20006;-77
2022/09/26 02:13:23;;;;;;;24.15;17.88;;;16.00;99.90;;;;;;6094859;23;20014;-77
2022/09/26 02:15:56;;;;;;;22.45;16.88;;;15.90;99.90;;;;;;6094969;23;20073;-77
2022/09/26 02:18:33;;;;;;;20.20;16.58;;;15.90;99.90;;;;;;6094934;23;20017;-77
2022/09/26 02:21:08;;;;;;;21.13;15.65;;;15.80;99.90;;;;;;6094630;23;20057;-77
2022/09/26 02:23:34;;;;;;;17.42;13.93;;;15.70;99.90;;;;;;6094898;23;20431;-77
2022/09/26 02:26:00;;;;;;;16.75;13.95;;;15.50;99.90;;;;;;6094936;23;20005;-77
2022/09/26 02:28:27;;;;;;;15.10;12.52;;;15.40;99.90;;;;;;6093582;23;20011;-77
2022/09/26 02:30:53;;;;;;;18.80;14.15;;;15.40;99.90;;;;;;6094871;23;20049;-77
2022/09/26 02:33:19;;;;;;;22.42;14.88;;;15.40;99.90;;;;;;6093323;23;20010;-77
2022/09/26 02:35:56;;;;;;;17.58;14.45;;;15.30;99.90;;;;;;6094904;23;20030;-77
2022/09/26 02:38:29;;;;;;;17.00;14.27;;;15.40;99.90;;;;;;6093452;23;20058;-77
2022/09/26 02:41:06;;;;;;;16.63;13.38;;;15.40;99.90;;;;;;6094737;23;20013;-77
2022/09/26 02:43:54;;;;;;;13.95;12.30;;;15.40;99.90;;;;;;6093445;23;20387;-77
2022/09/26 02:46:39;;;;;;;18.35;13.32;;;15.30;99.90;;;;;;6094600;23;20006;-77
2022/09/26 02:49:23;;;;;;;16.27;12.77;;;15.20;99.90;;;;;;6094952;23;20334;-77
2022/09/26 02:52:10;;;;;;;17.25;13.38;;;15.20;99.90;;;;;;6093260;23;20006;-77
2022/09/26 02:54:57;;;;;;;14.95;12.65;;;15.30;99.90;;;;;;6094903;23;20002;-77
2022/09/26 02:57:55;;;;;;;15.35;12.70;;;15.30;99.90;;;;;;6094650;23;20342;-77
2022/09/26 03:00:30;;;;;;;15.35;12.55;;;15.30;99.90;;;;;;6086571;23;20383;-77
2022/09/26 03:03:02;;;;;;;14.90;12.55;;;15.40;99.90;;;;;;6093279;23;20003;-77
2022/09/26 03:05:30;;;;;;;16.13;12.35;;;15.40;99.90;;;;;;6094828;23;20010;-77
2022/09/26 03:07:58;;;;;;;16.92;12.52;;;15.40;99.90;;;;;;6094841;23;20030;-77
2022/09/26 03:10:27;;;;;;;16.67;13.43;;;15.30;99.90;;;;;;6096554;23;20343;-77
2022/09/26 03:12:59;;;;;;;14.80;12.50;;;15.30;99.90;;;;;;6096446;23;20427;-77
2022/09/26 03:15:27;;;;;;;15.30;12.50;;;15.40;99.90;;;;;;6096599;23;20008;-77
2022/09/26 03:17:55;;;;;;;14.90;12.75;;;15.30;99.90;;;;;;6096392;23;20041;-77
2022/09/26 03:20:22;;;;;;;16.40;12.93;;;15.30;99.90;;;;;;6096261;23;20420;-77
2022/09/26 03:22:48;;;;;;;15.13;12.40;;;15.30;99.90;;;;;;6096402;23;20054;-77
2022/09/26 03:25:18;;;;;;;15.68;13.27;;;15.20;99.90;;;;;;6096310;23;20003;-77
2022/09/26 03:27:45;;;;;;;16.20;12.57;;;15.20;99.90;;;;;;6096476;23;20007;-76
2022/09/26 03:30:12;;;;;;;14.15;12.20;;;15.20;99.90;;;;;;6094683;23;20003;-77
2022/09/26 03:32:39;;;;;;;14.50;11.65;;;15.20;99.90;;;;;;6096266;23;20002;-77
2022/09/26 03:35:06;;;;;;;14.23;11.77;;;15.20;99.90;;;;;;6096305;23;20215;-77
2022/09/26 03:37:33;;;;;;;13.88;11.00;;;15.20;99.90;;;;;;6096287;23;20415;-77
2022/09/26 03:40:05;;;;;;;14.38;10.82;;;15.10;99.90;;;;;;6094631;23;20320;-77
2022/09/26 03:42:32;;;;;;;9.18;7.93;;;15.10;99.90;;;;;;6096189;23;20002;-77
2022/09/26 03:44:58;;;;;;;9.10;8.05;;;15.10;99.90;;;;;;6096314;23;20338;-77
2022/09/26 03:47:25;;;;;;;10.40;9.40;;;15.10;99.90;;;;;;6096102;23;20378;-77
2022/09/26 03:49:51;;;;;;;14.40;11.75;;;15.00;99.90;;;;;;6096029;23;20010;-77
2022/09/26 03:52:17;;;;;;;14.38;11.05;;;14.90;99.90;;;;;;6096095;23;20065;-77
2022/09/26 03:54:43;;;;;;;12.40;10.10;;;14.90;99.90;;;;;;6096191;23;20339;-77
2022/09/26 03:57:11;;;;;;;8.88;8.07;;;14.90;99.90;;;;;;6094330;23;20279;-77
2022/09/26 03:59:37;;;;;;;6.65;6.00;;;14.80;99.90;;;;;;6095996;23;20025;-77
2022/09/26 04:02:04;;;;;;;4.32;4.03;;;14.80;99.90;;;;;;6095842;23;20002;-77
2022/09/26 04:04:31;;;;;;;7.13;6.53;;;14.80;99.90;;;;;;6096010;23;20334;-77
2022/09/26 04:06:57;;;;;;;6.60;5.93;;;14.70;99.90;;;;;;6095915;23;20010;-77
2022/09/26 04:09:23;;;;;;;7.78;6.97;;;14.70;99.90;;;;;;6096039;23;20004;-77
2022/09/26 04:11:49;;;;;;;9.88;8.05;;;14.60;99.90;;;;;;6094257;23;20042;-77
2022/09/26 04:14:16;;;;;;;7.80;7.10;;;14.50;99.90;;;;;;6095904;23;20030;-77
2022/09/26 04:16:42;;;;;;;6.57;5.95;;;14.50;99.90;;;;;;6095840;23;20010;-77
2022/09/26 04:19:08;;;;;;;5.68;5.18;;;14.50;99.90;;;;;;6094174;23;20010;-77
2022/09/26 04:21:34;;;;;;;5.95;5.35;;;14.50;99.90;;;;;;6095625;23;20007;-77
2022/09/26 04:24:01;;;;;;;6.10;5.60;;;14.50;99.90;;;;;;6095794;23;20003;-77
2022/09/26 04:26:27;;;;;;;7.90;5.90;;;14.50;99.90;;;;;;6095819;23;20086;-77
2022/09/26 04:28:55;;;;;;;8.48;5.25;;;14.50;99.90;;;;;;6095802;23;20003;-77
2022/09/26 04:31:23;;;;;;;2.92;2.70;;;14.50;99.90;;;;;;6095465;23;20006;-77
2022/09/26 04:33:49;;;;;;;2.10;2.00;;;14.50;99.90;;;;;;6095721;23;20013;-77
2022/09/26 04:36:16;;;;;;;3.47;3.28;;;14.60;99.90;;;;;;6095561;23;20009;-77
2022/09/26 04:38:42;;;;;;;2.70;2.60;;;14.50;99.90;;;;;;6095566;23;20030;-77
2022/09/26 04:41:17;;;;;;;3.00;2.80;;;14.50;99.90;;;;;;6095359;23;20033;-77
2022/09/26 04:43:43;;;;;;;2.78;2.60;;;14.50;99.90;;;;;;6094140;23;20003;-77
2022/09/26 04:46:12;;;;;;;2.95;2.55;;;14.40;99.90;;;;;;6094094;23;20498;-77
2022/09/26 04:48:38;;;;;;;1.98;1.88;;;14.50;99.90;;;;;;6095520;23;20501;-77
2022/09/26 04:51:09;;;;;;;2.03;1.83;;;14.50;99.90;;;;;;6093995;23;20438;-77
2022/09/26 04:53:37;;;;;;;2.22;2.03;;;14.40;99.90;;;;;;6095427;23;20431;-77
2022/09/26 04:56:03;;;;;;;2.55;1.60;;;14.50;99.90;;;;;;6095606;23;20335;-78
2022/09/26 04:58:29;;;;;;;1.90;1.40;;;14.40;99.90;;;;;;6093627;23;20019;-76
2022/09/26 05:01:00;;;;;;;1.77;1.67;;;14.40;99.90;;;;;;6094492;23;20014;-77
2022/09/26 05:03:28;;;;;;;1.60;1.50;;;14.40;99.90;;;;;;6095400;23;20003;-77
2022/09/26 05:05:54;;;;;;;1.48;1.30;;;14.20;99.90;;;;;;6095558;23;20508;-77
2022/09/26 05:08:22;;;;;;;1.60;1.50;;;14.20;99.90;;;;;;6094002;23;20009;-77
2022/09/26 05:10:55;;;;;;;1.38;1.30;;;14.20;99.90;;;;;;6095291;23;20017;-77
2022/09/26 05:13:22;;;;;;;2.60;1.42;;;14.20;99.90;;;;;;6095482;23;20026;-77
2022/09/26 05:15:52;;;;;;;1.33;1.33;;;14.20;99.90;;;;;;6095174;23;20009;-77
2022/09/26 05:18:18;;;;;;;1.63;1.17;;;14.20;99.90;;;;;;6095360;23;20010;-77
2022/09/26 05:20:47;;;;;;;2.45;1.67;;;14.30;99.90;;;;;;6095373;23;20331;-77
2022/09/26 05:26:18;;;;;;;1.17;1.17;;;14.30;99.90;;;;;;6095485;23;20053;-77
2022/09/26 05:26:18;;;;;;;1.45;1.35;;;14.30;99.90;;;;;;6093932;23;20342;-77
2022/09/26 05:28:47;;;;;;;0.80;0.80;;;14.20;99.90;;;;;;6093637;23;20002;-77
2022/09/26 05:31:13;;;;;;;1.10;1.00;;;14.20;99.90;;;;;;6094831;23;20005;-76
2022/09/26 05:33:39;;;;;;;2.38;0.90;;;14.30;99.90;;;;;;6093692;23;20407;-77
2022/09/26 05:36:07;;;;;;;1.35;1.10;;;14.30;99.90;;;;;;6091511;23;20006;-77
2022/09/26 05:38:33;;;;;;;1.00;1.00;;;14.20;99.90;;;;;;6092989;23;20089;-77
2022/09/26 05:40:59;;;;;;;0.80;0.80;;;14.20;99.90;;;;;;6093292;23;20034;-77
2022/09/26 05:43:26;;;;;;;1.90;1.02;;;14.20;99.90;;;;;;6094019;23;20335;-76
2022/09/26 05:45:57;;;;;;;2.47;0.80;;;14.20;99.90;;;;;;6094525;23;19999;-76
2022/09/26 05:48:24;;;;;;;0.70;0.70;;;14.20;99.90;;;;;;6094535;23;20462;-76
2022/09/26 05:50:50;;;;;;;0.65;0.65;;;14.30;99.90;;;;;;6095200;23;20342;-76
2022/09/26 05:53:16;;;;;;;0.90;0.90;;;14.20;99.90;;;;;;6095077;23;20037;-76
2022/09/26 05:55:41;;;;;;;0.70;0.70;;;14.20;99.90;;;;;;6095430;23;20007;-77
2022/09/26 05:58:08;;;;;;;0.63;0.63;;;14.20;99.90;;;;;;6094791;23;20050;-76
2022/09/26 06:00:37;;;;;;;0.88;0.88;;;14.20;99.90;;;;;;6094741;23;20041;-77
2022/09/26 06:03:03;;;;;;;0.93;0.70;;;14.20;99.90;;;;;;6095131;23;20002;-76
2022/09/26 06:05:32;;;;;;;1.02;0.70;;;14.20;99.90;;;;;;6093399;23;20007;-76
2022/09/26 06:08:00;;;;;;;0.77;0.77;;;14.30;99.90;;;;;;6095102;23;20026;-76
2022/09/26 06:10:26;;;;;;;1.85;1.10;;;14.30;99.90;;;;;;6093513;23;20461;-77
2022/09/26 06:12:52;;;;;;;1.48;0.90;;;14.40;99.90;;;;;;6094951;23;19999;-76
2022/09/26 06:15:18;;;;;;;0.80;0.80;;;14.50;99.90;;;;;;6095037;23;20003;-76
2022/09/26 06:17:44;;;;;;;0.80;0.80;;;14.50;99.90;;;;;;6093410;23;20082;-77
2022/09/26 06:20:10;;;;;;;0.88;0.80;;;14.60;99.90;;;;;;6093452;23;20006;-76
2022/09/26 06:22:42;;;;;;;2.88;1.00;;;14.70;99.90;;;;;;6095124;23;20061;-76
2022/09/26 06:25:09;;;;;;;1.02;0.85;;;14.80;99.90;;;;;;6094992;23;20010;-76
2022/09/26 06:27:37;;;;;;;0.73;0.73;;;14.80;99.90;;;;;;6094985;23;20005;-77
2022/09/26 06:30:08;;;;;;;0.60;0.60;;;14.90;99.90;;;;;;6093192;23;20030;-77
2022/09/26 06:32:35;;;;;;;0.80;0.80;;;15.00;99.90;;;;;;6093819;23;20015;-77
2022/09/26 06:35:01;;;;;;;0.80;0.80;;;15.00;99.90;;;;;;6096062;23;20118;-77
2022/09/26 06:37:27;;;;;;;0.73;0.73;;;15.00;99.90;;;;;;6094975;23;20060;-77
2022/09/26 06:39:56;;;;;;;0.77;0.77;;;15.10;99.90;;;;;;6096079;23;20081;-76
2022/09/26 06:42:24;;;;;;;0.60;0.60;;;15.10;99.90;;;;;;6096352;23;20085;-77
2022/09/26 06:44:53;;;;;;;0.95;0.95;;;15.20;99.90;;;;;;6095563;23;20510;-77
2022/09/26 06:47:19;;;;;;;2.00;1.90;;;15.20;99.90;;;;;;6096014;23;20025;-77
2022/09/26 06:49:47;;;;;;;2.42;2.22;;;15.20;99.90;;;;;;6097864;23;20300;-77
2022/09/26 06:52:12;;;;;;;3.85;3.55;;;15.30;99.90;;;;;;6098121;23;20010;-77
2022/09/26 06:54:42;;;;;;;4.65;4.30;;;15.30;99.90;;;;;;6097506;23;20457;-77
2022/09/26 06:57:38;;;;;;;4.53;4.13;;;15.40;99.90;;;;;;6095549;23;20011;-77
2022/09/26 07:00:06;;;;;;;11.57;7.53;;;15.50;99.90;;;;;;6095963;23;20014;-77
2022/09/26 07:02:32;;;;;;;9.27;8.23;;;15.50;99.90;;;;;;6096490;23;20347;-76
2022/09/26 07:04:58;;;;;;;9.70;8.50;;;15.60;99.90;;;;;;6097915;23;20018;-77
2022/09/26 07:07:24;;;;;;;9.38;8.25;;;15.60;99.90;;;;;;6097793;23;19998;-77
2022/09/26 07:09:50;;;;;;;10.35;8.27;;;15.70;99.90;;;;;;6096209;23;20003;-77
2022/09/26 07:12:16;;;;;;;10.00;8.10;;;15.70;99.90;;;;;;6094226;23;20013;-76
2022/09/26 07:14:42;;;;;;;7.35;6.65;;;15.70;99.90;;;;;;6094662;23;20007;-77
2022/09/26 07:17:14;;;;;;;10.32;7.32;;;15.70;99.90;;;;;;6094720;23;20009;-76
2022/09/26 07:19:43;;;;;;;8.80;7.97;;;15.80;99.90;;;;;;6094704;23;20386;-77
2022/09/26 07:22:09;;;;;;;9.85;7.80;;;15.80;99.90;;;;;;6093116;23;20006;-76
2022/09/26 07:24:35;;;;;;;9.20;7.47;;;15.70;99.90;;;;;;6093476;23;20006;-76
2022/09/26 07:27:02;;;;;;;9.20;8.10;;;15.70;99.90;;;;;;6094526;23;20002;-77
2022/09/26 07:29:28;;;;;;;8.10;7.20;;;15.80;99.90;;;;;;6094333;23;20006;-77
2022/09/26 07:31:54;;;;;;;7.90;6.97;;;15.80;99.90;;;;;;6094799;23;20138;-77
2022/09/26 07:34:23;;;;;;;8.20;7.10;;;15.90;99.90;;;;;;6093909;23;20431;-77
2022/09/26 07:36:50;;;;;;;7.45;6.70;;;16.00;99.90;;;;;;6090841;23;20033;-77
2022/09/26 07:39:16;;;;;;;8.07;7.15;;;16.00;99.90;;;;;;6093749;23;20009;-76
2022/09/26 07:41:44;;;;;;;11.43;8.43;;;16.10;99.90;;;;;;6090251;23;20057;-77
2022/09/26 07:44:09;;;;;;;11.30;8.85;;;16.20;99.90;;;;;;6090122;23;20010;-76
2022/09/26 07:52:04;;;;;;;12.07;8.65;;;16.30;99.90;;;;;;6092020;23;20074;-77
2022/09/26 07:54:30;;;;;;;12.05;9.32;;;16.20;99.90;;;;;;6091731;23;20679;-76
2022/09/26 07:56:55;;;;;;;9.75;8.43;;;16.30;99.90;;;;;;6092189;23;20431;-77
2022/09/26 07:59:24;;;;;;;7.43;6.53;;;16.30;99.90;;;;;;6092991;23;20097;-77
2022/09/26 08:01:53;;;;;;;5.47;4.68;;;16.30;99.90;;;;;;6093490;23;20014;-77
2022/09/26 08:04:19;;;;;;;4.85;4.45;;;16.30;99.90;;;;;;6090292;23;20010;-76
2022/09/26 08:06:45;;;;;;;5.05;4.55;;;16.30;99.90;;;;;;6092661;23;20003;-76
2022/09/26 08:09:12;;;;;;;4.10;3.80;;;16.30;99.90;;;;;;6091266;23;20002;-77
2022/09/26 08:11:39;;;;;;;2.65;2.55;;;16.40;99.90;;;;;;6092364;23;20042;-76
2022/09/26 08:14:05;;;;;;;3.03;2.80;;;16.40;99.90;;;;;;6091744;23;20454;-77
2022/09/26 08:16:31;;;;;;;3.58;3.03;;;16.40;99.90;;;;;;6093322;23;20013;-76
2022/09/26 08:18:57;;;;;;;7.85;2.80;;;16.50;99.90;;;;;;6093670;23;20007;-76
2022/09/26 08:21:23;;;;;;;3.10;2.90;;;16.50;99.90;;;;;;6093845;23;20448;-77
2022/09/26 08:23:49;;;;;;;4.00;3.60;;;16.50;99.90;;;;;;6092729;23;20006;-77
2022/09/26 08:26:15;;;;;;;3.53;3.25;;;16.60;99.90;;;;;;6093539;23;20022;-76
2022/09/26 08:28:41;;;;;;;4.40;3.80;;;16.70;99.90;;;;;;6093409;23;20006;-77
2022/09/26 08:31:10;;;;;;;4.28;3.97;;;16.70;99.90;;;;;;6092624;23;20013;-76
2022/09/26 08:33:37;;;;;;;4.03;3.63;;;16.80;99.90;;;;;;6093304;23;20038;-76
2022/09/26 08:36:11;;;;;;;5.88;4.80;;;17.00;99.90;;;;;;6093108;23;20492;-78
2022/09/26 08:38:37;;;;;;;7.82;4.95;;;17.10;99.90;;;;;;6093067;23;20061;-78
2022/09/26 08:41:22;;;;;;;5.82;5.32;;;17.20;99.90;;;;;;6091536;23;20146;-78
2022/09/26 08:43:55;;;;;;;6.63;4.40;;;17.30;99.90;;;;;;6090281;23;20006;-78
2022/09/26 08:49:24;;;;;;;4.88;4.38;;;17.30;99.90;;;;;;6093441;23;20050;-78
2022/09/26 08:52:00;;;;;;;6.80;5.57;;;17.40;99.90;;;;;;6091399;23;20033;-78
2022/09/26 08:54:45;;;;;;;9.07;6.13;;;17.40;99.90;;;;;;6090095;23;20006;-78
2022/09/26 08:57:29;;;;;;;13.25;7.03;;;17.40;99.90;;;;;;6091729;23;20007;-78
2022/09/26 08:59:55;;;;;;;8.65;7.68;;;17.50;99.90;;;;;;6092746;23;20018;-78
2022/09/26 09:02:37;;;;;;;10.23;8.65;;;17.60;99.90;;;;;;6092059;23;20450;-77
2022/09/26 09:05:13;;;;;;;;;;;17.60;99.90;;;;;;6094086;23;20053;-78
2022/09/26 09:07:40;;;;;;;14.85;10.50;;;17.60;99.90;;;;;;6067846;23;19902;-78
2022/09/26 09:10:14;;;;;;;13.88;10.73;;;17.60;99.90;;;;;;6092005;23;20006;-77
2022/09/26 09:13:11;;;;;;;15.27;11.73;;;17.60;99.90;;;;;;6094248;23;20034;-78
2022/09/26 09:16:02;;;;;;;13.57;9.68;;;17.50;99.90;;;;;;6087503;23;20077;-77
2022/09/26 09:18:44;;;;;;;14.02;10.63;;;17.60;99.90;;;;;;6091915;23;20016;-76
2022/09/26 09:21:40;;;;;;;13.68;10.75;;;17.60;99.90;;;;;;6093330;23;20017;-78
2022/09/26 09:24:09;;;;;;;11.30;9.52;;;17.50;99.90;;;;;;6093939;23;20002;-78
2022/09/26 09:27:02;;;;;;;12.32;9.75;;;17.60;99.90;;;;;;6093426;23;19999;-78
2022/09/26 09:29:55;;;;;;;15.20;9.13;;;17.80;99.90;;;;;;6093586;23;20069;-78
2022/09/26 09:32:27;;;;;;;12.70;10.30;;;17.90;99.90;;;;;;6093302;23;20013;-84
2022/09/26 09:34:54;;;;;;;12.40;9.32;;;17.80;99.90;;;;;;6092049;23;20057;-77
2022/09/26 09:37:24;;;;;;;12.35;9.52;;;17.90;99.90;;;;;;6091960;23;20002;-77
2022/09/26 09:39:50;;;;;;;9.93;8.75;;;17.90;99.90;;;;;;6093293;23;20417;-78
2022/09/26 09:42:29;;;;;;;12.55;10.63;;;18.00;99.90;;;;;;6092422;23;20034;-78
2022/09/26 09:45:40;;;;;;;13.35;11.05;;;18.10;99.90;;;;;;6093359;23;19999;-78
2022/09/26 09:48:14;;;;;;;13.95;11.25;;;18.20;99.90;;;;;;6092625;23;20015;-78
2022/09/26 09:50:45;;;;;;;17.20;12.25;;;18.20;99.90;;;;;;6096420;23;20006;-77
2022/09/26 09:53:29;;;;;;;13.20;11.13;;;18.30;99.90;;;;;;6096952;23;20003;-77
2022/09/26 09:56:20;;;;;;;11.98;9.65;;;18.30;99.90;;;;;;6096400;23;20010;-77
2022/09/26 09:58:54;;;;;;;10.45;8.35;;;18.30;99.90;;;;;;6095200;23;20026;-77
2022/09/26 10:01:40;;;;;;;10.85;8.40;;;18.30;99.90;;;;;;6096387;23;20002;-77
2022/09/26 10:04:19;;;;;;;10.90;8.00;;;18.40;99.90;;;;;;6096826;23;20057;-77
2022/09/26 10:06:45;;;;;;;8.98;7.75;;;18.40;99.90;;;;;;6095095;23;20002;-77
2022/09/26 10:09:16;;;;;;;9.70;7.35;;;18.50;99.90;;;;;;6096547;23;20081;-77
2022/09/26 10:11:42;;;;;;;8.52;7.20;;;18.50;99.90;;;;;;6096432;23;20007;-77
2022/09/26 13:20:42;;;;;;;8.18;5.18;;;21.30;99.90;;;;;;5066496;28;20375;-79
2022/09/26 13:23:26;;;;;;;5.57;4.68;;;21.10;99.90;;;;;;5066579;28;20029;-79
2022/09/26 13:26:15;;;;;;;5.88;4.28;;;20.90;99.90;;;;;;5065460;28;20025;-78
2022/09/26 13:28:52;;;;;;;4.18;3.47;;;20.80;99.90;;;;;;5044801;28;20383;-78
2022/09/26 13:31:34;;;;;;;3.80;3.50;;;20.70;99.90;;;;;;5061755;28;20046;-78
2022/09/26 13:34:12;;;;;;;4.40;4.00;;;20.60;99.90;;;;;;5064447;28;20111;-78
2022/09/26 13:36:41;;;;;;;5.00;4.50;;;20.60;99.90;;;;;;5064791;28;20364;-77
2022/09/26 13:39:16;;;;;;;9.32;4.13;;;20.60;99.90;;;;;;5064431;28;20364;-76
2022/09/26 13:42:07;;;;;;;7.07;3.17;;;20.60;99.90;;;;;;5063012;27;20024;-78
2022/09/26 13:44:58;;;;;;;2.67;2.17;;;20.60;99.90;;;;;;5063206;28;20630;-78
2022/09/26 13:47:29;;;;;;;2.30;2.10;;;20.50;99.90;;;;;;5062419;27;20025;-79
2022/09/26 13:50:17;;;;;;;2.88;2.67;;;20.50;99.90;;;;;;5064249;28;20514;-78
2022/09/26 13:52:55;;;;;;;2.00;1.85;;;20.60;99.90;;;;;;5062529;27;20093;-77
2022/09/26 13:55:21;;;;;;;2.47;2.38;;;20.60;99.90;;;;;;5063602;28;20025;-77
2022/09/26 13:58:01;;;;;;;3.70;2.38;;;20.70;99.90;;;;;;5064018;28;20088;-77
2022/09/26 14:00:30;;;;;;;2.72;2.47;;;20.80;99.90;;;;;;5064255;28;20020;-77
2022/09/26 14:03:16;;;;;;;7.18;2.60;;;20.90;99.90;;;;;;5063980;28;20056;-77
2022/09/26 14:05:48;;;;;;;3.83;3.17;;;20.90;99.90;;;;;;5062748;28;20040;-77
2022/09/26 14:11:26;;;;;;;3.83;3.53;;;20.90;99.90;;;;;;5062658;28;20040;-77
2022/09/26 14:14:19;;;;;;;5.35;3.88;;;21.10;99.90;;;;;;5061579;28;20016;-79
2022/09/26 14:16:52;;;;;;;5.80;4.80;;;21.30;99.90;;;;;;5058482;27;20052;-77
2022/09/26 14:19:37;;;;;;;4.40;4.00;;;21.30;99.90;;;;;;5060229;28;20049;-77
2022/09/26 14:22:23;;;;;;;4.15;3.70;;;21.50;99.90;;;;;;5052244;28;20032;-77
2022/09/26 14:24:58;;;;;;;4.80;4.40;;;21.60;99.90;;;;;;5051989;27;20093;-77
2022/09/26 14:27:42;;;;;;;3.75;3.05;;;21.60;99.90;;;;;;5051722;28;20376;-77
2022/09/26 14:30:29;;;;;;;3.40;3.10;;;21.60;99.90;;;;;;5050659;28;20036;-77
2022/09/26 14:33:02;;;;;;;3.88;3.33;;;21.70;99.90;;;;;;5050855;28;20049;-74
2022/09/26 14:35:31;;;;;;;3.65;3.35;;;21.70;99.90;;;;;;5050658;28;20017;-74
2022/09/26 14:38:06;;;;;;;3.67;2.95;;;21.70;99.90;;;;;;5049284;28;20039;-74
2022/09/26 14:40:36;;;;;;;5.70;4.22;;;21.70;99.90;;;;;;5049272;28;20448;-74
2022/09/26 14:43:12;;;;;;;5.40;3.05;;;21.80;99.90;;;;;;5050605;28;20536;-74
2022/09/26 14:45:38;;;;;;;3.33;3.13;;;21.70;99.90;;;;;;5047154;28;20024;-74
2022/09/26 14:48:06;;;;;;;2.50;2.38;;;21.80;99.90;;;;;;5043947;28;20262;-74
2022/09/26 14:50:58;;;;;;;3.92;3.63;;;21.80;99.90;;;;;;5045358;28;20017;-74
2022/09/26 14:53:30;;;;;;;3.72;3.42;;;21.70;99.90;;;;;;5045999;28;20025;-74
2022/09/26 14:56:05;;;;;;;4.85;4.45;;;21.60;99.90;;;;;;5045641;28;20037;-74
2022/09/26 14:58:36;;;;;;;4.97;4.55;;;21.60;99.90;;;;;;5045778;28;20013;-73
2022/09/26 15:01:28;;;;;;;5.13;4.63;;;21.50;99.90;;;;;;5045737;28;20029;-74
2022/09/26 15:04:24;;;;;;;4.80;4.40;;;21.50;99.90;;;;;;5044278;28;20116;-74
2022/09/26 15:07:12;;;;;;;4.47;4.10;;;21.50;99.90;;;;;;5038381;28;20037;-73
2022/09/26 15:09:42;;;;;;;4.88;4.43;;;21.50;99.90;;;;;;5033028;27;20136;-74
2022/09/26 15:12:39;;;;;;;4.55;4.18;;;21.50;99.90;;;;;;5048617;28;20418;-74
2022/09/26 15:15:43;;;;;;;4.72;4.32;;;21.50;99.90;;;;;;5028433;28;20036;-73
2022/09/26 15:18:19;;;;;;;6.32;4.82;;;21.50;99.90;;;;;;5039157;28;20048;-73
2022/09/26 15:20:53;;;;;;;5.20;4.70;;;21.50;99.90;;;;;;5044445;28;20436;-74
2022/09/26 15:23:27;;;;;;;5.38;4.63;;;21.50;99.90;;;;;;5031107;28;20037;-74
2022/09/26 15:26:01;;;;;;;5.22;4.72;;;21.50;99.90;;;;;;5045754;27;20032;-74
2022/09/26 15:28:33;;;;;;;6.85;5.03;;;21.40;99.90;;;;;;5044323;28;20564;-75
2022/09/26 15:31:20;;;;;;;5.28;4.43;;;21.50;99.90;;;;;;5044222;28;20021;-75
2022/09/26 15:33:49;;;;;;;5.20;4.68;;;21.40;99.90;;;;;;5045241;28;20045;-74
2022/09/26 15:36:16;;;;;;;6.70;5.40;;;21.40;99.90;;;;;;5040568;28;20040;-75
2022/09/26 15:38:43;;;;;;;6.40;5.22;;;21.40;99.90;;;;;;5026770;28;20029;-74
2022/09/26 15:44:24;;;;;;;7.72;4.22;;;21.40;99.90;;;;;;5032189;28;20175;-74
2022/09/26 15:46:50;;;;;;;10.05;4.90;;;21.50;99.90;;;;;;5039051;28;20021;-75
2022/09/26 15:49:21;;;;;;;4.90;4.40;;;21.50;99.90;;;;;;5044423;28;20369;-75
2022/09/26 15:51:52;;;;;;;5.10;4.53;;;21.50;99.90;;;;;;5034060;28;20033;-75
2022/09/26 15:54:27;;;;;;;7.95;5.07;;;21.50;99.90;;;;;;5036258;28;20244;-74
2022/09/26 15:56:56;;;;;;;4.40;4.00;;;21.50;99.90;;;;;;5033176;28;20074;-74
2022/09/26 15:59:35;;;;;;;5.43;3.47;;;21.50;99.90;;;;;;5032798;28;20484;-74
2022/09/26 16:02:01;;;;;;;4.95;4.30;;;21.50;99.90;;;;;;5024356;28;20059;-74
2022/09/26 16:04:29;;;;;;;6.15;4.60;;;21.50;99.90;;;;;;5039748;28;20037;-74
2022/09/26 16:07:15;;;;;;;8.38;5.85;;;21.60;99.90;;;;;;5043478;28;20025;-74
2022/09/26 16:09:43;;;;;;;6.25;5.15;;;21.50;99.90;;;;;;5047857;28;20023;-75
2022/09/26 16:12:14;;;;;;;8.45;5.55;;;21.40;99.90;;;;;;5049215;28;20014;-74
2022/09/26 16:14:57;;;;;;;8.52;5.65;;;21.30;99.90;;;;;;5047736;28;20021;-74
2022/09/26 16:17:37;;;;;;;5.13;4.63;;;21.30;99.90;;;;;;5046715;28;20040;-74
2022/09/26 16:20:12;;;;;;;5.30;4.35;;;21.30;99.90;;;;;;5038349;28;20147;-74
2022/09/26 16:22:50;;;;;;;5.18;4.70;;;21.20;99.90;;;;;;5029034;28;20492;-74
2022/09/26 16:25:23;;;;;;;5.22;4.72;;;21.10;99.90;;;;;;5027553;28;20056;-74
2022/09/26 16:27:59;;;;;;;3.63;3.33;;;21.10;99.90;;;;;;5045468;28;20074;-74
2022/09/26 16:30:28;;;;;;;3.10;2.90;;;21.00;99.90;;;;;;5047083;28;20032;-74